Time;durP1;ratioP1;P1;durP2;ratioP2;P2;SDS_P1;SDS_P2;PMS_P1;PMS_P2;Temp;Humidity;BMP_temperature;BMP_pressure;BME280_temperature;BME280_humidity;BME280_pressure;Samples;Min_cycle;Max_cycle;Signal;HPM_P1;HPM_P2
2022/08/05 00:01:16;;;;;;;3.22;0.93;;;;;;;27.40;32.96;101792.22;5115365;28;20379;-53
2022/08/05 00:03:45;;;;;;;4.60;1.15;;;;;;;27.46;32.58;101787.94;5115402;28;20028;-49
2022/08/05 00:06:14;;;;;;;5.10;1.00;;;;;;;27.55;32.53;101783.63;5114831;28;20024;-48
2022/08/05 00:08:43;;;;;;;2.42;0.90;;;;;;;27.20;33.25;101788.47;5114900;28;20521;-48
2022/08/05 00:11:13;;;;;;;4.28;1.00;;;;;;;27.26;33.10;101788.56;5115429;28;20428;-49
2022/08/05 00:13:43;;;;;;;3.95;0.93;;;;;;;27.30;32.76;101788.59;5115039;28;20100;-47
2022/08/05 00:16:14;;;;;;;3.13;0.65;;;;;;;27.35;32.77;101791.28;5115269;28;20080;-57
2022/08/05 00:18:45;;;;;;;3.35;0.75;;;;;;;27.32;32.84;101791.25;5115380;28;20375;-45
2022/08/05 00:21:14;;;;;;;4.25;0.88;;;;;;;27.36;32.83;101790.41;5114955;28;20392;-49
2022/08/05 00:23:46;;;;;;;6.32;1.70;;;;;;;27.45;32.55;101787.00;5114255;28;20436;-49
2022/08/05 00:26:16;;;;;;;3.50;0.57;;;;;;;27.34;32.72;101791.28;5115079;28;20406;-58
2022/08/05 00:28:45;;;;;;;3.97;1.30;;;;;;;27.17;33.00;101788.44;5114917;28;20028;-49
2022/08/05 00:31:13;;;;;;;4.68;1.20;;;;;;;27.33;32.77;101785.09;5114685;28;20110;-49
2022/08/05 00:33:42;;;;;;;4.07;0.90;;;;;;;27.27;32.89;101790.31;5114577;28;20023;-46
2022/08/05 00:36:10;;;;;;;4.45;1.08;;;;;;;27.41;32.67;101785.19;5114759;28;20035;-47
2022/08/05 00:38:39;;;;;;;3.85;1.10;;;;;;;27.24;32.72;101782.38;5115064;28;20058;-46
2022/08/05 00:41:08;;;;;;;5.97;1.58;;;;;;;27.21;32.91;101791.13;5114670;28;20459;-49
2022/08/05 00:43:36;;;;;;;5.10;0.75;;;;;;;27.24;32.75;101792.91;5114526;28;20024;-46
2022/08/05 00:46:05;;;;;;;3.40;0.80;;;;;;;27.16;32.95;101787.56;5114807;28;20027;-48
2022/08/05 00:48:33;;;;;;;1.50;0.75;;;;;;;27.07;33.08;101783.06;5114439;28;20031;-47
2022/08/05 00:51:02;;;;;;;2.80;0.82;;;;;;;27.17;32.69;101793.69;5114101;28;20042;-52
2022/08/05 00:53:30;;;;;;;9.13;1.33;;;;;;;27.03;32.89;101786.50;5096139;28;20023;-47
2022/08/05 00:55:59;;;;;;;3.67;1.15;;;;;;;27.04;33.07;101790.03;5096110;28;20034;-48
2022/08/05 00:58:28;;;;;;;2.78;0.88;;;;;;;27.10;32.95;101796.28;5114397;28;20023;-45
2022/08/05 01:00:56;;;;;;;2.92;1.00;;;;;;;27.21;32.73;101798.16;5113971;28;20085;-46
2022/08/05 01:03:24;;;;;;;3.30;0.98;;;;;;;27.07;33.13;101797.94;5114309;28;20023;-49
2022/08/05 01:05:53;;;;;;;4.75;1.08;;;;;;;27.03;32.84;101801.44;5114181;28;20069;-52
2022/08/05 01:08:22;;;;;;;4.30;0.75;;;;;;;26.96;33.17;101800.47;5113610;28;20035;-49
2022/08/05 01:11:01;;;;;;;2.60;0.75;;;;;;;26.90;33.10;101803.00;5114271;28;20359;-48
2022/08/05 01:14:01;;;;;;;2.88;1.27;;;;;;;26.82;33.21;101805.53;5095894;28;20031;-45
2022/08/05 01:16:51;;;;;;;1.95;0.73;;;;;;;26.82;33.47;101802.91;5114436;28;20080;-56
2022/08/05 01:19:22;;;;;;;3.17;0.82;;;;;;;26.95;33.32;101811.88;5088994;28;20032;-49
2022/08/05 01:22:15;;;;;;;2.90;0.73;;;;;;;26.89;33.36;101814.41;5113849;28;20054;-54
2022/08/05 01:24:52;;;;;;;4.57;1.00;;;;;;;26.77;33.52;101815.06;5106663;28;20078;-50
2022/08/05 01:27:49;;;;;;;2.53;0.77;;;;;;;26.71;33.69;101823.78;5078660;28;20498;-48
2022/08/05 01:30:17;;;;;;;1.90;0.47;;;;;;;26.66;33.72;101821.06;5106398;28;20039;-53
2022/08/05 01:32:47;;;;;;;2.33;0.57;;;;;;;26.70;33.48;101824.63;5113623;28;20024;-52
2022/08/05 01:35:18;;;;;;;2.00;0.70;;;;;;;26.54;33.98;101820.91;5113826;28;20088;-56
2022/08/05 01:37:53;;;;;;;4.05;0.70;;;;;;;26.63;33.58;101815.75;5095833;28;20026;-51
2022/08/05 01:40:27;;;;;;;1.60;0.60;;;;;;;26.76;33.40;101823.81;5095748;28;20115;-57
2022/08/05 01:42:57;;;;;;;2.72;0.70;;;;;;;26.80;33.56;101812.53;5095547;28;20023;-48
2022/08/05 01:45:28;;;;;;;6.05;1.00;;;;;;;26.82;33.21;101821.34;5095066;28;20100;-54
2022/08/05 01:47:57;;;;;;;1.95;0.50;;;;;;;26.77;33.78;101818.59;5113491;28;20111;-49
2022/08/05 01:50:31;;;;;;;3.42;0.60;;;;;;;26.73;33.62;101818.50;5095475;28;20045;-53
2022/08/05 01:53:03;;;;;;;2.03;0.87;;;;;;;26.87;33.12;101813.50;5095713;28;20024;-49
2022/08/05 01:55:33;;;;;;;3.03;0.65;;;;;;;26.86;33.18;101812.63;5113757;28;20030;-48
2022/08/05 01:58:04;;;;;;;3.97;1.08;;;;;;;26.83;33.34;101810.81;5113361;28;20390;-52
2022/08/05 02:00:35;;;;;;;1.40;0.60;;;;;;;26.77;33.29;101829.13;5113861;28;20063;-54
2022/08/05 02:03:11;;;;;;;2.53;0.93;;;;;;;26.93;32.97;101825.00;5112786;28;20024;-50
2022/08/05 02:05:41;;;;;;;2.25;0.65;;;;;;;26.93;33.05;101821.50;5098663;28;20024;-52
2022/08/05 02:08:10;;;;;;;2.20;0.73;;;;;;;26.83;33.13;101820.47;5082491;28;20118;-48
2022/08/05 02:10:43;;;;;;;2.60;0.70;;;;;;;26.78;33.36;101822.09;5117820;28;20050;-51
2022/08/05 02:13:36;;;;;;;2.35;0.63;;;;;;;26.76;33.20;101827.38;5117044;28;20039;-50
2022/08/05 02:16:12;;;;;;;4.30;0.70;;;;;;;26.56;33.49;101824.41;5117050;28;20038;-48
2022/08/05 02:18:43;;;;;;;2.67;0.73;;;;;;;26.57;33.68;101834.06;5098775;28;20073;-56
2022/08/05 02:21:16;;;;;;;4.63;0.90;;;;;;;26.46;33.57;101831.31;5117197;28;20093;-46
2022/08/05 02:23:48;;;;;;;3.03;0.50;;;;;;;26.44;33.78;101830.38;5099420;28;20027;-48
2022/08/05 02:26:22;;;;;;;3.30;0.80;;;;;;;26.33;33.76;101818.78;5099079;28;20505;-54
2022/08/05 02:28:51;;;;;;;1.13;0.50;;;;;;;26.31;34.02;101824.03;5099935;28;20098;-57
2022/08/05 02:31:23;;;;;;;2.28;0.68;;;;;;;26.52;33.69;101835.75;5116623;28;20019;-52
2022/08/05 02:33:55;;;;;;;2.38;0.60;;;;;;;26.63;33.49;101834.19;5099191;28;20028;-49
2022/08/05 02:36:25;;;;;;;2.58;0.63;;;;;;;26.43;33.54;101847.03;5098684;28;20039;-47
2022/08/05 02:38:55;;;;;;;4.20;0.90;;;;;;;26.41;33.58;101846.09;5116962;28;20161;-50
2022/08/05 02:41:25;;;;;;;3.90;0.93;;;;;;;26.43;33.79;101847.03;5099351;28;20040;-49
2022/08/05 02:43:55;;;;;;;2.33;0.88;;;;;;;26.38;33.79;101848.69;5098902;28;20031;-49
2022/08/05 02:46:24;;;;;;;1.67;0.50;;;;;;;26.31;33.73;101841.56;5098706;28;20024;-50
2022/08/05 02:48:53;;;;;;;3.05;0.47;;;;;;;26.33;33.83;101851.25;5098446;28;20027;-56
2022/08/05 02:51:21;;;;;;;3.05;0.73;;;;;;;26.40;33.61;101852.22;5099009;28;20094;-51
2022/08/05 02:53:50;;;;;;;4.55;0.80;;;;;;;26.44;33.52;101848.81;5116623;28;20032;-49
2022/08/05 02:56:18;;;;;;;5.13;1.25;;;;;;;26.38;33.77;101854.84;5116638;28;20493;-48
2022/08/05 02:58:48;;;;;;;4.70;0.80;;;;;;;26.21;33.81;101827.38;5098615;28;20065;-56
2022/08/05 03:01:21;;;;;;;6.97;1.15;;;;;;;26.34;33.82;101846.84;5098718;28;20113;-52
2022/08/05 03:03:52;;;;;;;1.33;0.55;;;;;;;26.42;33.36;101847.88;5116469;28;20032;-52
2022/08/05 03:06:21;;;;;;;3.78;1.02;;;;;;;26.36;33.58;101845.13;5116730;28;20089;-46
2022/08/05 03:08:50;;;;;;;3.70;0.73;;;;;;;26.39;33.48;101845.19;5116379;28;20032;-49
2022/08/05 03:11:21;;;;;;;4.68;1.00;;;;;;;26.14;33.88;101836.00;5115945;28;20121;-57
2022/08/05 03:13:50;;;;;;;4.97;1.02;;;;;;;26.07;34.34;101846.38;5098188;28;20114;-54
2022/08/05 03:16:20;;;;;;;3.65;0.90;;;;;;;26.15;33.81;101836.00;5097461;28;20032;-49
2022/08/05 03:18:48;;;;;;;3.78;1.00;;;;;;;26.18;33.81;101835.19;5116463;28;20032;-55
2022/08/05 03:21:17;;;;;;;5.47;1.10;;;;;;;26.14;33.88;101830.75;5115705;28;20390;-56
2022/08/05 03:23:46;;;;;;;5.57;0.55;;;;;;;26.17;33.94;101838.69;5116206;28;20462;-58
2022/08/05 03:26:15;;;;;;;3.65;0.85;;;;;;;26.25;33.93;101842.31;5097469;28;20097;-56
2022/08/05 03:28:43;;;;;;;2.38;0.60;;;;;;;26.12;33.73;101849.13;5098035;28;20553;-50
2022/08/05 03:31:13;;;;;;;3.20;0.80;;;;;;;26.15;34.17;101835.16;5115948;28;20051;-52
2022/08/05 03:33:42;;;;;;;1.77;0.70;;;;;;;25.92;34.25;101839.09;5115915;28;20030;-47
2022/08/05 03:36:10;;;;;;;5.35;0.95;;;;;;;26.05;34.21;101848.09;5115770;28;20394;-54
2022/08/05 03:38:42;;;;;;;2.58;0.82;;;;;;;26.05;34.16;101850.75;5116302;28;20439;-56
2022/08/05 03:41:10;;;;;;;2.97;0.50;;;;;;;26.06;33.96;101851.59;5116095;28;20051;-52
2022/08/05 03:43:39;;;;;;;4.30;1.08;;;;;;;25.92;34.38;101844.34;5115838;28;20489;-51
2022/08/05 03:46:07;;;;;;;3.50;0.90;;;;;;;25.96;34.35;101842.66;5097363;28;20027;-56
2022/08/05 03:48:35;;;;;;;4.05;0.90;;;;;;;25.98;34.16;101837.44;5115603;28;20051;-55
2022/08/05 03:51:11;;;;;;;5.28;1.10;;;;;;;26.02;34.17;101841.88;5114866;28;20024;-48
2022/08/05 03:53:51;;;;;;;5.20;0.85;;;;;;;25.86;34.57;101838.09;5097644;28;20020;-48
2022/08/05 03:56:40;;;;;;;3.15;0.88;;;;;;;25.85;34.29;101842.47;5081085;28;20024;-48
2022/08/05 03:59:13;;;;;;;3.55;0.70;;;;;;;25.88;34.24;101842.53;5097723;28;20089;-53
2022/08/05 04:01:46;;;;;;;4.78;0.88;;;;;;;26.09;33.92;101849.91;5115747;28;20020;-52
2022/08/05 04:04:14;;;;;;;3.28;0.63;;;;;;;25.99;34.08;101840.09;5097263;28;20463;-46
2022/08/05 04:06:43;;;;;;;3.13;0.70;;;;;;;26.04;33.76;101842.81;5097127;28;20363;-50
2022/08/05 04:09:12;;;;;;;2.90;0.63;;;;;;;25.87;34.32;101835.50;5115164;28;20494;-48
2022/08/05 04:11:41;;;;;;;3.63;0.70;;;;;;;25.94;34.04;101840.03;5097497;28;20046;-48
2022/08/05 04:14:09;;;;;;;1.75;0.68;;;;;;;25.89;34.24;101843.44;5114969;28;20028;-48
2022/08/05 04:16:39;;;;;;;2.88;0.80;;;;;;;25.86;34.13;101849.50;5097111;28;20027;-49
2022/08/05 04:19:10;;;;;;;2.83;0.88;;;;;;;25.89;34.16;101843.44;5114539;28;20027;-48
2022/08/05 04:21:39;;;;;;;1.95;0.70;;;;;;;25.96;33.81;101841.78;5097058;28;20530;-58
2022/08/05 04:24:08;;;;;;;2.92;0.82;;;;;;;25.89;33.94;101838.16;5114809;28;20035;-53
2022/08/05 04:26:36;;;;;;;3.50;1.00;;;;;;;25.88;34.10;101841.66;5115055;28;20500;-46
2022/08/05 04:29:05;;;;;;;3.00;0.98;;;;;;;25.84;34.08;101845.06;5113283;28;20031;-53
2022/08/05 04:31:33;;;;;;;6.25;0.80;;;;;;;25.76;34.09;101847.56;5114934;28;20123;-53
2022/08/05 04:34:02;;;;;;;3.00;0.77;;;;;;;25.78;33.92;101841.47;5114712;28;20088;-45
2022/08/05 04:36:30;;;;;;;2.75;1.33;;;;;;;25.71;34.14;101846.56;5096466;28;20470;-45
2022/08/05 04:38:59;;;;;;;2.50;0.70;;;;;;;25.82;34.11;101847.66;5114766;28;20026;-54
2022/08/05 04:41:28;;;;;;;1.85;0.80;;;;;;;25.82;33.92;101845.03;5114735;28;20020;-49
2022/08/05 04:43:56;;;;;;;2.33;0.70;;;;;;;25.74;33.93;101844.88;5096735;28;20117;-55
2022/08/05 04:46:25;;;;;;;2.33;0.65;;;;;;;25.74;34.08;101852.75;5114499;28;20177;-46
2022/08/05 04:48:53;;;;;;;2.95;0.95;;;;;;;25.68;34.22;101859.63;5114835;28;20111;-47
2022/08/05 04:51:22;;;;;;;4.93;0.82;;;;;;;25.72;34.33;101867.63;5114491;28;20032;-49
2022/08/05 04:53:51;;;;;;;2.40;0.70;;;;;;;25.63;34.27;101868.34;5114310;28;20494;-51
2022/08/05 04:56:19;;;;;;;3.78;0.70;;;;;;;25.78;34.00;101866.88;5114114;28;20035;-51
2022/08/05 04:58:48;;;;;;;3.65;0.95;;;;;;;25.75;33.80;101869.44;5114460;28;20092;-49
2022/08/05 05:01:16;;;;;;;2.90;0.93;;;;;;;25.66;33.85;101877.13;5113925;28;20077;-51
2022/08/05 05:03:45;;;;;;;2.35;0.60;;;;;;;25.68;33.72;101883.28;5113762;28;20023;-46
2022/08/05 05:06:14;;;;;;;2.45;0.80;;;;;;;25.73;33.73;101882.53;5114210;28;20028;-53
2022/08/05 05:08:42;;;;;;;3.17;0.90;;;;;;;25.60;33.94;101889.28;5114160;28;20023;-47
2022/08/05 05:11:11;;;;;;;4.55;0.90;;;;;;;25.63;33.63;101883.19;5114173;28;20031;-54
2022/08/05 05:13:40;;;;;;;10.57;1.00;;;;;;;25.42;34.06;101892.41;5113403;28;20063;-51
2022/08/05 05:16:08;;;;;;;2.97;0.60;;;;;;;25.41;34.25;101894.97;5113350;28;20026;-50
2022/08/05 05:18:37;;;;;;;4.13;1.17;;;;;;;25.40;34.29;101893.19;5114141;28;20031;-47
2022/08/05 05:21:05;;;;;;;2.88;0.60;;;;;;;25.45;33.88;101884.59;5113523;28;20020;-53
2022/08/05 05:23:34;;;;;;;4.38;0.90;;;;;;;25.67;33.64;101900.81;5114137;28;20019;-53
2022/08/05 05:26:03;;;;;;;1.05;0.55;;;;;;;25.71;33.80;101899.13;5113703;28;20048;-53
2022/08/05 05:28:31;;;;;;;3.63;0.70;;;;;;;25.73;33.65;101906.16;5095952;28;20028;-50
2022/08/05 05:30:59;;;;;;;3.20;0.77;;;;;;;25.77;33.48;101900.13;5113795;28;20424;-47
2022/08/05 05:33:28;;;;;;;3.58;0.55;;;;;;;25.76;33.53;101903.63;5095513;28;20024;-49
2022/08/05 05:35:57;;;;;;;5.60;0.93;;;;;;;25.82;33.67;101910.72;5113445;28;20030;-50
2022/08/05 05:38:25;;;;;;;2.55;0.95;;;;;;;25.69;33.81;101896.47;5095745;28;20028;-49
2022/08/05 05:40:54;;;;;;;2.00;0.90;;;;;;;25.66;33.98;101906.00;5113789;28;20111;-49
2022/08/05 05:43:23;;;;;;;6.30;0.90;;;;;;;25.71;33.83;101905.28;5113726;28;20107;-46
2022/08/05 05:45:51;;;;;;;3.95;0.80;;;;;;;25.92;33.51;101904.81;5113834;28;20107;-46
2022/08/05 05:48:21;;;;;;;3.33;0.77;;;;;;;25.98;33.26;101905.81;5113884;28;20077;-48
2022/08/05 05:50:52;;;;;;;6.72;0.95;;;;;;;26.03;33.24;101912.03;5113756;28;20019;-57
2022/08/05 05:53:20;;;;;;;6.30;1.35;;;;;;;25.99;33.72;101904.91;5113879;28;20024;-51
2022/08/05 05:55:49;;;;;;;7.60;0.95;;;;;;;26.12;33.57;101909.63;5113713;28;20020;-46
2022/08/05 05:58:17;;;;;;;5.85;0.93;;;;;;;26.10;33.21;101900.78;5113333;28;20027;-47
2022/08/05 06:00:46;;;;;;;7.80;0.85;;;;;;;26.05;33.73;101908.59;5113259;28;20110;-51
2022/08/05 06:03:14;;;;;;;3.47;0.50;;;;;;;26.17;33.55;101913.19;5113561;28;20024;-58
2022/08/05 06:05:43;;;;;;;8.40;0.98;;;;;;;26.22;33.38;101914.19;5113104;28;20047;-51
2022/08/05 06:08:11;;;;;;;3.03;0.60;;;;;;;26.28;33.40;101920.41;5094684;28;20015;-48
2022/08/05 06:10:40;;;;;;;3.40;0.38;;;;;;;26.34;33.51;101931.94;5113257;28;20114;-46
2022/08/05 06:13:09;;;;;;;3.85;0.88;;;;;;;26.39;33.43;101927.63;5113279;28;20106;-47
2022/08/05 06:15:37;;;;;;;2.70;0.70;;;;;;;26.44;33.60;101932.09;5113153;28;20030;-49
2022/08/05 06:18:06;;;;;;;3.45;0.80;;;;;;;26.37;33.49;101910.03;5113297;28;20024;-52
2022/08/05 06:20:34;;;;;;;4.65;0.70;;;;;;;26.50;33.43;101933.06;5113020;28;20034;-46
2022/08/05 06:23:03;;;;;;;1.88;0.60;;;;;;;26.70;33.21;101940.44;5113004;28;20032;-47
2022/08/05 06:25:31;;;;;;;5.30;1.20;;;;;;;26.73;33.44;101940.50;5113147;28;20447;-49
2022/08/05 06:28:00;;;;;;;5.32;0.95;;;;;;;26.70;33.42;101937.81;5112951;28;20402;-48
2022/08/05 06:30:28;;;;;;;4.97;1.00;;;;;;;26.68;33.68;101945.69;5094870;28;20024;-49
2022/08/05 06:32:57;;;;;;;4.80;0.82;;;;;;;26.77;33.35;101947.59;5113125;28;20114;-46
2022/08/05 06:35:25;;;;;;;3.03;0.80;;;;;;;26.79;33.35;101943.28;5095657;28;20382;-52
2022/08/05 06:37:54;;;;;;;5.25;0.73;;;;;;;26.78;33.19;101944.09;5095144;28;20031;-47
2022/08/05 06:40:23;;;;;;;3.13;0.82;;;;;;;26.80;33.49;101945.03;5113115;28;20467;-47
2022/08/05 06:42:51;;;;;;;4.32;1.10;;;;;;;26.90;33.34;101955.72;5113413;28;20106;-44
2022/08/05 06:45:21;;;;;;;3.78;0.98;;;;;;;26.93;33.14;101955.78;5113235;28;20031;-44
2022/08/05 06:47:50;;;;;;;4.85;1.13;;;;;;;26.97;33.06;101954.97;5095379;28;20432;-44
2022/08/05 06:50:18;;;;;;;3.00;0.90;;;;;;;27.06;32.62;101956.81;5112676;28;20028;-45
2022/08/05 06:52:46;;;;;;;3.20;0.85;;;;;;;27.07;32.93;101950.69;5097521;28;20391;-44
2022/08/05 06:55:16;;;;;;;2.75;1.05;;;;;;;27.07;32.71;101958.59;5116427;28;20077;-44
2022/08/05 06:57:44;;;;;;;4.03;0.80;;;;;;;27.10;32.60;101956.94;5116708;28;20027;-54
2022/08/05 07:00:13;;;;;;;9.73;1.10;;;;;;;27.14;32.62;101957.84;5116771;28;20106;-45
2022/08/05 07:02:43;;;;;;;6.03;1.10;;;;;;;27.18;32.68;101954.41;5116517;28;20070;-50
2022/08/05 07:05:12;;;;;;;6.00;1.40;;;;;;;27.23;32.61;101962.38;5115928;28;20024;-44
2022/08/05 07:07:41;;;;;;;5.15;1.30;;;;;;;27.19;32.74;101956.19;5117010;28;20023;-45
2022/08/05 07:10:10;;;;;;;2.70;0.80;;;;;;;27.18;32.81;101958.78;5098159;28;20027;-45
2022/08/05 07:18:12;;;;;;;6.22;1.60;;;;;;;27.23;32.93;101967.63;5109353;28;20047;-45
2022/08/05 07:20:41;;;;;;;4.65;1.20;;;;;;;27.20;32.98;101968.50;5098568;28;20024;-45
2022/08/05 07:23:08;;;;;;;4.95;1.33;;;;;;;27.23;32.88;101973.78;5115934;28;20031;-51
2022/08/05 07:25:37;;;;;;;5.90;1.15;;;;;;;27.25;33.02;101971.19;5098566;28;20031;-45
2022/08/05 07:28:05;;;;;;;6.22;1.65;;;;;;;27.31;32.95;101979.16;5115966;28;20039;-56
2022/08/05 07:30:35;;;;;;;6.07;1.30;;;;;;;27.26;33.00;101980.88;5116492;28;20102;-45
2022/08/05 07:33:04;;;;;;;7.90;1.15;;;;;;;27.28;32.94;101976.50;5115772;28;20036;-46
2022/08/05 07:35:33;;;;;;;6.78;1.58;;;;;;;27.31;33.23;101976.53;5098102;28;20135;-45
2022/08/05 07:38:01;;;;;;;5.10;1.35;;;;;;;27.37;33.54;101987.16;5115829;28;20027;-46
2022/08/05 07:40:30;;;;;;;7.72;1.27;;;;;;;27.44;32.70;101978.50;5116796;28;20373;-48
2022/08/05 07:42:58;;;;;;;6.63;1.50;;;;;;;27.51;32.34;101984.78;5097634;28;20458;-48
2022/08/05 07:45:27;;;;;;;8.07;1.65;;;;;;;27.42;32.20;101964.41;5115984;28;20067;-46
2022/08/05 07:47:56;;;;;;;9.77;1.77;;;;;;;27.62;32.18;101992.84;5115826;28;20027;-56
2022/08/05 07:50:23;;;;;;;8.25;1.10;;;;;;;27.55;32.07;101996.22;5116220;28;20023;-56
2022/08/05 07:52:51;;;;;;;6.35;1.42;;;;;;;27.57;32.30;102002.41;5115864;28;20387;-53
2022/08/05 07:55:20;;;;;;;13.45;2.67;;;;;;;27.60;32.01;101999.84;5115522;28;20038;-56
2022/08/05 07:57:50;;;;;;;6.15;1.20;;;;;;;27.57;32.13;102003.28;5115883;28;20028;-47
2022/08/05 08:00:19;;;;;;;3.25;1.08;;;;;;;27.62;31.99;102008.66;5115641;28;20099;-45
2022/08/05 08:02:48;;;;;;;6.78;1.10;;;;;;;27.68;31.98;102016.63;5114845;28;20054;-46
2022/08/05 08:05:16;;;;;;;5.57;1.33;;;;;;;27.65;31.98;102015.69;5115605;28;20035;-52
2022/08/05 08:07:46;;;;;;;8.40;1.60;;;;;;;27.65;31.96;102010.44;5115123;28;20083;-50
2022/08/05 08:10:15;;;;;;;6.90;1.33;;;;;;;27.64;32.13;102020.06;5116175;28;20047;-48
2022/08/05 08:12:43;;;;;;;5.63;1.65;;;;;;;27.66;31.91;102010.44;5115012;28;20096;-46
2022/08/05 08:15:11;;;;;;;6.50;1.25;;;;;;;27.70;32.26;102012.25;5103811;28;20023;-45
2022/08/05 08:17:38;;;;;;;4.75;1.23;;;;;;;27.70;31.96;102012.25;5084619;28;20039;-46
2022/08/05 08:20:07;;;;;;;5.22;1.05;;;;;;;27.70;32.25;102020.16;5102673;28;20039;-46
2022/08/05 08:22:35;;;;;;;7.90;1.55;;;;;;;27.73;32.15;102012.31;5102811;28;20147;-46
2022/08/05 08:25:03;;;;;;;5.65;1.27;;;;;;;27.71;31.95;102007.91;5084700;28;20552;-47
2022/08/05 08:27:30;;;;;;;6.10;1.00;;;;;;;27.78;31.95;102019.41;5102557;28;20056;-49
2022/08/05 08:29:57;;;;;;;5.15;1.42;;;;;;;27.69;32.01;102012.25;5102087;28;21336;-52
2022/08/05 08:32:26;;;;;;;3.42;0.80;;;;;;;27.76;32.05;102019.38;5102485;28;20455;-52
2022/08/05 08:35:12;;;;;;;5.68;1.65;;;;;;;27.77;32.03;102017.63;5086563;28;20038;-50
2022/08/05 08:37:41;;;;;;;3.47;0.77;;;;;;;27.70;32.07;102009.63;5083140;28;20096;-53
2022/08/05 08:40:09;;;;;;;3.97;1.13;;;;;;;27.87;31.50;102024.78;5101356;28;20411;-48
2022/08/05 08:42:36;;;;;;;4.05;1.38;;;;;;;27.95;31.52;102038.06;5083780;28;20038;-52
2022/08/05 08:45:05;;;;;;;8.30;1.63;;;;;;;27.91;31.83;102037.16;5084493;28;20031;-53
2022/08/05 08:47:33;;;;;;;4.28;1.00;;;;;;;27.95;31.64;102036.34;5082840;28;20031;-50
2022/08/05 08:50:03;;;;;;;5.18;1.10;;;;;;;27.92;31.65;102032.75;5084637;28;20114;-52
2022/08/05 08:52:33;;;;;;;6.53;1.02;;;;;;;27.96;31.56;102040.75;5102855;28;20500;-47
2022/08/05 08:55:02;;;;;;;6.65;1.30;;;;;;;27.93;31.49;102035.44;5083504;28;20039;-50
2022/08/05 08:57:30;;;;;;;3.60;1.20;;;;;;;27.98;31.56;102032.84;5100757;28;20063;-53
2022/08/05 09:00:00;;;;;;;5.20;1.02;;;;;;;28.02;31.33;102034.66;5103160;28;20088;-56
2022/08/05 09:02:28;;;;;;;3.03;0.90;;;;;;;27.99;31.45;102039.88;5084193;28;20039;-45
2022/08/05 09:04:56;;;;;;;5.57;1.10;;;;;;;27.93;31.47;102022.25;5084144;28;20027;-48
2022/08/05 09:07:25;;;;;;;3.50;0.75;;;;;;;28.05;30.99;102038.22;5082431;28;20035;-46
2022/08/05 09:09:53;;;;;;;4.28;0.95;;;;;;;28.08;31.02;102042.63;5102356;28;20035;-51
2022/08/05 09:12:22;;;;;;;3.53;1.00;;;;;;;28.12;30.71;102040.97;5101795;28;20027;-53
2022/08/05 09:14:50;;;;;;;7.15;0.80;;;;;;;28.12;30.73;102056.81;5100916;28;20039;-50
2022/08/05 09:17:20;;;;;;;5.13;1.13;;;;;;;28.11;30.91;102042.72;5100513;28;20542;-48
2022/08/05 09:19:47;;;;;;;8.35;1.10;;;;;;;28.12;30.22;102038.34;5101239;28;20036;-47
2022/08/05 09:22:14;;;;;;;4.50;1.25;;;;;;;28.08;30.53;102050.53;5101739;28;20486;-52
2022/08/05 09:24:43;;;;;;;4.75;1.08;;;;;;;28.00;30.65;102037.25;5083456;28;20067;-46
2022/08/05 09:27:36;;;;;;;2.67;1.02;;;;;;;28.09;30.73;102051.44;5082174;28;20699;-47
2022/08/05 09:30:06;;;;;;;6.15;1.08;;;;;;;28.17;30.30;102047.16;5082652;28;20036;-49
2022/08/05 09:32:35;;;;;;;2.97;1.05;;;;;;;28.12;30.68;102055.03;5101349;28;20118;-48
2022/08/05 09:35:15;;;;;;;3.25;0.90;;;;;;;28.07;30.50;102045.25;5101273;28;20478;-48
2022/08/05 09:37:54;;;;;;;3.28;0.77;;;;;;;28.09;30.13;102052.31;5100918;28;20039;-47
2022/08/05 09:40:42;;;;;;;7.43;1.23;;;;;;;28.09;30.06;102043.53;5100655;28;20088;-46
2022/08/05 09:43:30;;;;;;;5.68;0.80;;;;;;;28.19;29.70;102053.34;5100463;28;20040;-45
2022/08/05 09:45:58;;;;;;;5.82;1.15;;;;;;;28.19;29.71;102056.00;5101942;28;20039;-46
2022/08/05 09:48:29;;;;;;;11.00;0.95;;;;;;;28.25;29.87;102056.06;5101647;28;20076;-50
2022/08/05 09:51:01;;;;;;;4.60;1.30;;;;;;;28.23;29.59;102057.81;5101158;28;20115;-45
2022/08/05 09:53:30;;;;;;;3.58;1.20;;;;;;;28.29;29.26;102054.34;5066194;28;20108;-52
2022/08/05 09:56:00;;;;;;;3.58;1.15;;;;;;;28.29;29.30;102057.91;5099786;28;20415;-50
2022/08/05 09:58:30;;;;;;;4.03;1.05;;;;;;;28.26;29.33;102070.13;5083617;28;20031;-51
2022/08/05 10:01:00;;;;;;;2.97;0.95;;;;;;;28.19;29.42;102059.53;5082974;28;20784;-53
2022/08/05 10:03:28;;;;;;;6.68;1.25;;;;;;;28.30;29.13;102051.72;5101048;28;20032;-54
2022/08/05 10:06:16;;;;;;;4.45;0.98;;;;;;;28.28;29.01;102061.41;5101489;28;20035;-55
2022/08/05 10:08:43;;;;;;;7.13;1.15;;;;;;;28.27;29.06;102058.72;5083067;28;20118;-47
2022/08/05 10:11:16;;;;;;;4.50;0.98;;;;;;;28.24;29.17;102066.59;5083508;28;20108;-52
2022/08/05 10:13:45;;;;;;;4.70;0.98;;;;;;;28.24;28.89;102064.84;5101073;28;20115;-49
2022/08/05 10:16:35;;;;;;;5.13;0.95;;;;;;;28.32;28.94;102067.59;5101740;28;20172;-54
2022/08/05 10:19:03;;;;;;;3.63;0.60;;;;;;;28.29;28.70;102059.63;5082860;28;20031;-51
2022/08/05 10:21:30;;;;;;;9.85;1.42;;;;;;;28.28;28.75;102057.84;5100674;28;20077;-47
2022/08/05 10:23:59;;;;;;;6.65;0.90;;;;;;;28.30;29.02;102072.81;5081636;28;20028;-48
2022/08/05 10:26:27;;;;;;;5.88;1.02;;;;;;;28.27;28.66;102056.09;5082396;28;20411;-48
2022/08/05 10:28:56;;;;;;;2.58;0.90;;;;;;;28.24;27.87;102062.22;5087633;28;20506;-47
2022/08/05 10:31:24;;;;;;;3.67;0.90;;;;;;;28.26;28.12;102064.88;5086897;28;20056;-52
2022/08/05 10:33:52;;;;;;;4.57;1.08;;;;;;;28.13;27.53;102062.09;5104686;28;20118;-47
2022/08/05 10:36:21;;;;;;;3.60;1.08;;;;;;;28.26;28.12;102070.13;5104467;28;20032;-51
2022/08/05 10:38:49;;;;;;;5.40;0.95;;;;;;;28.28;27.69;102058.75;5086434;28;20046;-46
2022/08/05 10:41:33;;;;;;;3.03;0.90;;;;;;;28.27;27.06;102064.91;5105316;28;20188;-49
2022/08/05 10:44:05;;;;;;;4.28;0.80;;;;;;;28.17;27.88;102070.91;5103864;28;20880;-47
2022/08/05 10:46:53;;;;;;;4.07;1.33;;;;;;;28.24;27.88;102079.78;5085339;28;20448;-49
2022/08/05 10:49:23;;;;;;;7.60;1.05;;;;;;;28.30;27.61;102086.03;5104614;28;20491;-47
2022/08/05 10:51:56;;;;;;;2.92;0.75;;;;;;;28.29;28.07;102072.81;5104594;28;20038;-49
2022/08/05 10:54:44;;;;;;;5.53;0.70;;;;;;;28.32;28.21;102073.75;5103889;28;20035;-49
2022/08/05 10:57:13;;;;;;;3.88;0.80;;;;;;;28.38;28.43;102086.13;5096897;28;20044;-51
2022/08/05 10:59:40;;;;;;;5.65;1.13;;;;;;;28.17;27.38;102061.25;5086433;28;20402;-48
2022/08/05 11:02:10;;;;;;;5.28;0.88;;;;;;;28.42;27.48;102080.00;5104549;28;20051;-51
2022/08/05 11:04:49;;;;;;;3.97;0.70;;;;;;;28.44;27.30;102075.63;5104424;28;20040;-46
2022/08/05 11:07:17;;;;;;;4.68;0.82;;;;;;;28.46;27.05;102075.69;5068385;28;20073;-48
2022/08/05 11:09:49;;;;;;;5.43;0.90;;;;;;;28.46;27.65;102079.19;5086293;28;20034;-50
2022/08/05 11:12:37;;;;;;;3.75;1.00;;;;;;;28.47;27.32;102072.13;5104669;28;20550;-53
2022/08/05 11:15:26;;;;;;;7.70;1.00;;;;;;;28.40;26.83;102094.94;5102994;28;20042;-51
2022/08/05 11:17:55;;;;;;;4.97;0.90;;;;;;;28.53;27.15;102090.69;5102752;28;20023;-57
2022/08/05 11:20:45;;;;;;;8.13;0.98;;;;;;;28.47;26.17;102086.25;5086587;28;20085;-49
2022/08/05 11:23:50;;;;;;;3.17;1.00;;;;;;;28.43;26.57;102096.75;5095941;28;20066;-53
2022/08/05 11:26:18;;;;;;;4.25;0.98;;;;;;;28.37;26.38;102088.75;5102833;28;20052;-55
2022/08/05 11:28:48;;;;;;;2.70;0.95;;;;;;;28.30;25.88;102082.50;5103883;28;20143;-50
2022/08/05 11:31:15;;;;;;;3.58;1.10;;;;;;;28.35;26.23;102100.16;5105106;28;20036;-56
2022/08/05 11:33:46;;;;;;;2.95;0.52;;;;;;;28.33;26.58;102104.53;5102935;28;20567;-55
2022/08/05 11:36:17;;;;;;;9.07;0.98;;;;;;;28.37;26.46;102100.22;5105251;28;20054;-50
2022/08/05 11:38:46;;;;;;;6.00;1.15;;;;;;;28.42;26.35;102101.13;5102317;28;20812;-53
2022/08/05 11:41:30;;;;;;;7.80;1.17;;;;;;;28.33;26.29;102090.47;5102755;28;20032;-54
2022/08/05 11:44:00;;;;;;;4.85;1.48;;;;;;;28.37;26.92;102101.94;5085096;28;20054;-56
2022/08/05 11:46:49;;;;;;;4.88;0.85;;;;;;;28.30;26.39;102093.94;5103409;28;20473;-57